Time;durP1;ratioP1;P1;durP2;ratioP2;P2;SDS_P1;SDS_P2;PMS_P1;PMS_P2;Temp;Humidity;BMP_temperature;BMP_pressure;BME280_temperature;BME280_humidity;BME280_pressure;Samples;Min_cycle;Max_cycle;Signal;HPM_P1;HPM_P2
2023/01/29 00:01:37;;;;;;;;;4.20;3.40;;;;;-2.83;84.14;101261.06;5136894;27;8817;-58
2023/01/29 00:04:06;;;;;;;;;6.00;5.60;;;;;-2.84;83.70;101260.19;5137607;27;8814;-58
2023/01/29 00:06:34;;;;;;;;;9.60;8.20;;;;;-2.85;83.40;101266.28;5138073;27;8833;-58
2023/01/29 00:09:01;;;;;;;;;10.60;10.60;;;;;-2.85;83.73;101257.59;5138457;27;8825;-58
2023/01/29 00:11:30;;;;;;;;;2.60;2.20;;;;;-2.87;83.89;101249.78;5138037;27;8960;-58
2023/01/29 00:13:58;;;;;;;;;8.60;7.00;;;;;-2.88;83.94;101242.00;5131213;27;8824;-60
2023/01/29 00:16:26;;;;;;;;;5.80;5.20;;;;;-2.87;83.62;101238.50;5117962;28;8834;-60
2023/01/29 00:18:54;;;;;;;;;6.60;6.60;;;;;-2.86;83.93;101240.25;5116952;28;8827;-58
2023/01/29 00:21:22;;;;;;;;;5.20;4.80;;;;;-2.86;83.73;101235.03;5116983;28;8844;-57
2023/01/29 00:23:50;;;;;;;;;11.40;10.80;;;;;-2.85;83.33;101231.53;5130645;27;8837;-59
2023/01/29 00:26:17;;;;;;;;;12.00;10.00;;;;;-2.85;83.95;101227.22;5137200;27;8843;-60
2023/01/29 00:28:45;;;;;;;;;9.40;9.20;;;;;-2.81;83.98;101228.91;5122519;27;9469;-58
2023/01/29 00:31:13;;;;;;;;;11.60;11.60;;;;;-2.79;83.81;101231.53;5116711;28;8859;-60
2023/01/29 00:33:42;;;;;;;;;8.40;6.80;;;;;-2.79;83.91;101221.94;5116621;28;8831;-57
2023/01/29 00:36:09;;;;;;;;;11.60;9.80;;;;;-2.75;83.89;101228.00;5116394;28;8808;-60
2023/01/29 00:38:37;;;;;;;;;9.80;9.40;;;;;-2.74;83.58;101224.56;5116468;28;8840;-60
2023/01/29 00:46:36;;;;;;;;;9.60;9.20;;;;;-2.65;83.50;101221.88;5116249;28;8827;-57
2023/01/29 00:49:03;;;;;;;;;0.80;0.00;;;;;-2.65;84.10;101232.31;5115811;28;8808;-57
2023/01/29 00:51:31;;;;;;;;;12.80;10.40;;;;;-2.64;83.60;101223.63;5115624;28;8839;-58
2023/01/29 00:53:59;;;;;;;;;6.00;6.00;;;;;-2.65;83.55;101230.56;5131248;27;8838;-59
2023/01/29 00:56:26;;;;;;;;;15.80;12.20;;;;;-2.68;83.13;101229.69;5135502;27;8829;-57
2023/01/29 00:58:54;;;;;;;;;15.20;13.20;;;;;-2.73;83.78;101232.34;5121487;27;8850;-57
2023/01/29 01:03:04;;;;;;;;;4.80;4.60;;;;;-2.77;83.62;101230.63;5116321;28;8811;-57
2023/01/29 01:04:09;;;;;;;;;9.80;8.40;;;;;-2.82;83.37;101234.13;5116762;28;8842;-57
2023/01/29 01:06:37;;;;;;;;;8.20;7.40;;;;;-2.87;83.54;101236.75;5116608;28;8920;-59
2023/01/29 01:11:50;;;;;;;;;8.40;6.40;;;;;-2.95;83.37;101229.88;5116772;28;8847;-58
2023/01/29 01:14:18;;;;;;;;;7.60;7.60;;;;;-2.97;83.98;101237.69;5116522;28;8831;-60
2023/01/29 01:16:46;;;;;;;;;12.40;9.40;;;;;-3.02;83.74;101242.03;5116624;28;8815;-59
2023/01/29 01:19:14;;;;;;;;;10.00;8.60;;;;;-3.02;83.76;101251.59;5116367;28;8860;-60
2023/01/29 01:21:44;;;;;;;;;12.20;11.80;;;;;-3.04;83.92;101256.81;5116429;28;8916;-57
2023/01/29 01:24:13;;;;;;;;;6.00;4.00;;;;;-3.08;84.04;101249.00;5133090;27;8810;-59
2023/01/29 01:26:40;;;;;;;;;10.20;9.00;;;;;-3.12;83.79;101242.06;5136792;27;8809;-59
2023/01/29 01:29:08;;;;;;;;;9.40;9.00;;;;;-3.16;83.90;101241.25;5119941;27;8808;-60
2023/01/29 01:31:36;;;;;;;;;9.40;5.60;;;;;-3.17;83.93;101249.06;5116680;28;8823;-59
2023/01/29 01:34:04;;;;;;;;;3.60;3.20;;;;;-3.20;83.87;101238.63;5116497;28;8859;-59
2023/01/29 01:36:33;;;;;;;;;6.40;6.40;;;;;-3.21;83.90;101231.69;5116404;28;8808;-58
2023/01/29 01:39:00;;;;;;;;;8.60;6.80;;;;;-3.22;83.69;101227.38;5116311;28;8827;-59
2023/01/29 01:41:28;;;;;;;;;12.00;10.80;;;;;-3.25;84.13;101219.59;5116275;28;8826;-58
2023/01/29 01:43:57;;;;;;;;;13.60;12.60;;;;;-3.27;83.62;101209.16;5115448;28;8827;-59
2023/01/29 01:46:24;;;;;;;;;12.80;11.20;;;;;-3.29;83.88;101202.22;5116074;28;8812;-58
2023/01/29 01:48:52;;;;;;;;;12.20;12.20;;;;;-3.29;84.47;101194.41;5115836;28;8819;-56
2023/01/29 01:51:20;;;;;;;;;17.60;14.20;;;;;-3.28;84.16;101194.41;5115796;28;8836;-59
2023/01/29 01:53:48;;;;;;;;;12.40;11.60;;;;;-3.27;84.13;101185.72;5128834;27;8830;-57
2023/01/29 01:56:16;;;;;;;;;10.80;10.20;;;;;-3.28;84.11;101188.34;5136639;27;8826;-58
2023/01/29 01:58:44;;;;;;;;;15.60;15.60;;;;;-3.30;84.07;101196.16;5123026;28;8808;-58
2023/01/29 02:01:12;;;;;;;;;12.60;12.60;;;;;-3.30;83.64;101203.09;5115850;28;8830;-59
2023/01/29 02:11:55;;;;;;;;;8.60;8.60;;;;;-3.17;83.81;101204.78;5115692;28;8839;-59
2023/01/29 02:14:24;;;;;;;;;10.80;10.40;;;;;-3.18;83.76;101205.66;5115762;28;8820;-59
2023/01/29 02:16:52;;;;;;;;;10.40;10.00;;;;;-3.18;83.92;101210.88;5115997;28;8827;-59
2023/01/29 02:19:20;;;;;;;;;9.80;9.40;;;;;-3.21;83.83;101211.75;5119825;28;8850;-59
2023/01/29 02:21:47;;;;;;;;;6.60;6.00;;;;;-3.23;83.93;101204.81;5120163;28;8844;-59
2023/01/29 02:24:15;;;;;;;;;11.20;9.20;;;;;-3.28;83.84;101210.03;5136861;27;8838;-60
2023/01/29 02:26:43;;;;;;;;;5.20;3.80;;;;;-3.30;84.31;101216.13;5140369;27;8822;-58
2023/01/29 02:29:23;;;;;;;;;11.20;9.40;;;;;-3.34;84.11;101207.44;5123645;27;8804;-59
2023/01/29 02:31:51;;;;;;;;;13.40;10.40;;;;;-3.37;83.75;101215.28;5119819;28;8824;-58
2023/01/29 02:34:19;;;;;;;;;9.00;9.00;;;;;-3.38;83.52;101228.28;5119342;28;8828;-59
2023/01/29 02:36:47;;;;;;;;;10.80;9.40;;;;;-3.39;84.13;101234.38;5119504;28;8820;-59
2023/01/29 02:39:15;;;;;;;;;12.40;12.40;;;;;-3.42;83.95;101226.59;5118872;28;8819;-59
2023/01/29 02:41:43;;;;;;;;;9.80;8.80;;;;;-3.44;83.96;101228.31;5119910;28;8826;-59
2023/01/29 02:44:10;;;;;;;;;6.40;6.40;;;;;-3.47;83.80;101226.56;5120057;28;9508;-59
2023/01/29 02:46:38;;;;;;;;;11.00;9.80;;;;;-3.49;84.25;101217.06;5119530;28;8819;-59
2023/01/29 02:49:06;;;;;;;;;7.40;7.00;;;;;-3.48;84.05;101217.03;5119603;28;8824;-59
2023/01/29 02:51:33;;;;;;;;;9.00;8.20;;;;;-3.45;83.95;101226.59;5119746;28;9006;-59
2023/01/29 02:54:01;;;;;;;;;6.60;5.40;;;;;-3.42;84.27;101224.00;5134599;27;9483;-59
2023/01/29 02:56:29;;;;;;;;;7.00;6.00;;;;;-3.41;84.36;101217.91;5139787;27;8821;-58
2023/01/29 02:58:56;;;;;;;;;12.00;10.00;;;;;-3.41;84.16;101234.38;5125194;27;8808;-60
2023/01/29 03:01:25;;;;;;;;;10.00;9.80;;;;;-3.41;83.66;101230.91;5119159;28;8831;-58
2023/01/29 03:03:53;;;;;;;;;7.20;7.20;;;;;-3.41;84.10;101233.53;5119695;28;8820;-60
2023/01/29 03:06:21;;;;;;;;;10.60;10.40;;;;;-3.40;83.98;101235.25;5119473;28;8863;-58
2023/01/29 03:08:49;;;;;;;;;4.80;3.60;;;;;-3.34;83.95;101245.66;5119432;28;8858;-59
2023/01/29 03:11:16;;;;;;;;;5.20;5.00;;;;;-3.29;83.66;101236.06;5125046;27;8833;-59
2023/01/29 03:13:44;;;;;;;;;5.60;5.60;;;;;-3.23;83.89;101236.94;5139958;27;8833;-59
2023/01/29 03:16:11;;;;;;;;;7.00;6.00;;;;;-3.14;83.99;101249.91;5139613;27;8818;-60
2023/01/29 03:18:44;;;;;;;;;6.20;5.20;;;;;-3.03;83.08;101237.69;5139539;27;8817;-59
2023/01/29 03:32:09;;;;;;;;;3.80;3.80;;;;;-2.79;83.45;101210.66;5118466;28;8900;-59
2023/01/29 03:34:37;;;;;;;;;5.20;4.80;;;;;-2.78;83.37;101212.41;5118268;28;8892;-59
2023/01/29 03:37:06;;;;;;;;;9.40;7.00;;;;;-2.82;83.00;101211.56;5119089;28;8844;-60
2023/01/29 03:39:34;;;;;;;;;11.60;9.80;;;;;-2.83;83.30;101214.16;5118345;28;8843;-60
2023/01/29 03:42:02;;;;;;;;;8.80;8.20;;;;;-2.86;83.24;101225.47;5118451;28;8808;-59
2023/01/29 03:44:30;;;;;;;;;10.00;10.00;;;;;-2.84;83.54;101223.72;5118881;28;9514;-60
2023/01/29 03:46:57;;;;;;;;;12.20;11.60;;;;;-2.79;83.49;101221.09;5118594;28;8812;-60
2023/01/29 03:49:25;;;;;;;;;7.00;6.80;;;;;-2.74;83.63;101214.13;5118809;28;8828;-60
2023/01/29 03:51:53;;;;;;;;;11.80;10.80;;;;;-2.69;83.41;101218.44;5118772;28;8836;-60
2023/01/29 03:54:20;;;;;;;;;9.80;9.80;;;;;-2.62;83.01;101214.03;5136218;27;8822;-60
2023/01/29 03:56:48;;;;;;;;;7.80;6.80;;;;;-2.53;83.33;101201.81;5139088;27;8840;-60
2023/01/29 03:59:16;;;;;;;;;7.80;5.60;;;;;-2.47;82.94;101195.69;5122203;27;8908;-60
2023/01/29 04:01:46;;;;;;;;;10.40;9.60;;;;;-2.42;83.10;101189.56;5118321;28;8949;-60
2023/01/29 04:04:14;;;;;;;;;12.00;9.20;;;;;-2.38;83.03;101191.28;5118342;28;8818;-60
2023/01/29 04:06:42;;;;;;;;;11.20;9.60;;;;;-2.33;82.66;101191.25;5118015;28;8828;-60
2023/01/29 04:09:09;;;;;;;;;4.80;4.40;;;;;-2.30;82.87;101181.66;5118311;28;8830;-60
2023/01/29 04:11:37;;;;;;;;;12.20;10.40;;;;;-2.27;83.10;101183.38;5118222;28;8816;-60
2023/01/29 04:14:05;;;;;;;;;3.80;2.60;;;;;-2.25;82.79;101174.66;5118157;28;8847;-60
2023/01/29 04:16:32;;;;;;;;;14.00;11.80;;;;;-2.24;82.78;101173.78;5118184;28;8839;-60
2023/01/29 04:19:00;;;;;;;;;8.20;8.20;;;;;-2.23;82.98;101170.28;5117921;28;8834;-60
2023/01/29 04:21:28;;;;;;;;;8.80;8.20;;;;;-2.20;82.94;101166.78;5117771;28;8900;-60
2023/01/29 04:23:55;;;;;;;;;9.40;9.00;;;;;-2.19;82.20;101168.53;5132403;27;8858;-60
2023/01/29 04:26:24;;;;;;;;;12.00;12.00;;;;;-2.17;83.08;101164.16;5138469;27;8840;-60
2023/01/29 04:28:51;;;;;;;;;10.00;9.60;;;;;-2.19;82.14;101163.31;5125371;27;8862;-60
2023/01/29 04:31:19;;;;;;;;;9.40;9.40;;;;;-2.22;82.94;101158.97;5117574;28;8832;-60
2023/01/29 04:33:47;;;;;;;;;12.20;12.20;;;;;-2.24;83.09;101159.88;5117523;28;8812;-60
2023/01/29 04:36:14;;;;;;;;;15.40;10.20;;;;;-2.30;82.64;101158.19;5117518;28;8812;-60
2023/01/29 04:38:42;;;;;;;;;10.40;10.40;;;;;-2.31;82.95;101163.41;5117808;28;8812;-60
2023/01/29 04:41:10;;;;;;;;;13.40;13.00;;;;;-2.28;82.59;101163.38;5117099;28;8800;-60
2023/01/29 04:43:37;;;;;;;;;7.80;7.40;;;;;-2.24;83.13;101159.88;5117373;28;8820;-60
2023/01/29 04:46:05;;;;;;;;;10.40;8.60;;;;;-2.22;83.11;101148.53;5117402;28;8834;-60
2023/01/29 04:48:33;;;;;;;;;15.60;11.00;;;;;-2.17;82.90;101146.78;5117132;28;8900;-58
2023/01/29 04:51:01;;;;;;;;;7.00;6.00;;;;;-2.10;82.41;101131.91;5117122;28;8848;-58
2023/01/29 04:53:29;;;;;;;;;9.80;9.60;;;;;-2.03;83.12;101136.19;5127876;27;8821;-58
2023/01/29 04:55:57;;;;;;;;;18.00;15.40;;;;;-1.96;82.61;101135.25;5137798;27;8822;-59
2023/01/29 04:58:24;;;;;;;;;14.00;12.80;;;;;-1.87;82.76;101132.53;5128867;27;8808;-60
2023/01/29 05:00:52;;;;;;;;;10.20;8.80;;;;;-1.79;82.54;101130.72;5116863;28;8827;-61
2023/01/29 05:03:20;;;;;;;;;9.00;9.00;;;;;-1.72;82.20;101121.94;5117295;28;8819;-59
2023/01/29 05:05:47;;;;;;;;;8.60;7.60;;;;;-1.65;82.13;101119.25;5116950;28;8815;-59
2023/01/29 05:08:15;;;;;;;;;7.00;5.80;;;;;-1.56;82.11;101121.75;5117130;28;8815;-61
2023/01/29 05:10:44;;;;;;;;;16.40;15.20;;;;;-1.51;82.38;101113.84;5116725;28;9493;-60
2023/01/29 05:13:11;;;;;;;;;13.00;10.00;;;;;-1.45;82.08;101121.63;5117173;28;8831;-58
2023/01/29 05:15:39;;;;;;;;;11.20;10.20;;;;;-1.40;81.88;101099.78;5116569;28;8820;-61
2023/01/29 05:18:07;;;;;;;;;9.80;8.00;;;;;-1.35;82.26;101100.59;5116662;28;8826;-60
2023/01/29 05:20:35;;;;;;;;;15.60;13.40;;;;;-1.30;81.76;101090.94;5116527;28;8835;-59
2023/01/29 05:23:03;;;;;;;;;16.80;15.60;;;;;-1.26;81.21;101078.69;5123559;27;8798;-61
2023/01/29 05:25:30;;;;;;;;;9.00;8.20;;;;;-1.24;81.72;101088.25;5137205;27;8834;-60
2023/01/29 05:28:03;;;;;;;;;6.60;6.60;;;;;-1.24;81.33;101083.00;5133177;27;9469;-58
2023/01/29 05:30:31;;;;;;;;;16.40;15.80;;;;;-1.22;81.13;101076.00;5116883;28;8812;-60
2023/01/29 05:32:59;;;;;;;;;12.60;10.40;;;;;-1.21;81.45;101066.44;5116946;28;8827;-60
2023/01/29 05:35:27;;;;;;;;;19.20;15.20;;;;;-1.20;81.45;101074.25;5116673;28;8820;-60
2023/01/29 05:37:55;;;;;;;;;21.60;17.20;;;;;-1.18;81.50;101076.84;5116440;28;8892;-57
2023/01/29 05:40:23;;;;;;;;;19.40;16.00;;;;;-1.18;81.69;101082.06;5116669;28;8816;-58
2023/01/29 05:42:50;;;;;;;;;15.40;14.60;;;;;-1.18;81.61;101077.72;5116585;28;9474;-61
2023/01/29 05:45:18;;;;;;;;;20.80;17.20;;;;;-1.17;81.87;101084.66;5116315;28;8828;-60
2023/01/29 05:47:46;;;;;;;;;9.60;8.60;;;;;-1.14;81.63;101083.75;5116651;28;8889;-59
2023/01/29 05:50:13;;;;;;;;;22.40;19.20;;;;;-1.11;81.72;101075.88;5116204;28;8808;-60
2023/01/29 05:52:42;;;;;;;;;7.20;6.60;;;;;-1.08;81.06;101081.91;5121507;27;8810;-59
2023/01/29 05:55:09;;;;;;;;;12.20;10.40;;;;;-1.03;81.49;101092.28;5141442;27;9483;-59
2023/01/29 05:57:37;;;;;;;;;12.20;10.40;;;;;-0.98;81.30;101100.94;5139400;27;8858;-61
2023/01/29 06:00:05;;;;;;;;;6.00;4.80;;;;;-0.94;81.68;101102.59;5120529;28;8836;-60
2023/01/29 06:02:32;;;;;;;;;14.40;12.60;;;;;-0.89;81.42;101106.03;5120445;28;8831;-60
2023/01/29 06:05:00;;;;;;;;;10.00;9.40;;;;;-0.86;81.56;101113.84;5120167;28;8826;-61
2023/01/29 06:07:28;;;;;;;;;8.20;7.00;;;;;-0.80;81.43;101108.50;5120372;28;8832;-59
2023/01/29 06:09:56;;;;;;;;;17.00;15.40;;;;;-0.77;81.19;101117.16;5120493;28;8820;-60
2023/01/29 06:12:23;;;;;;;;;13.60;10.80;;;;;-0.75;81.31;101128.47;5120518;28;8831;-60
2023/01/29 06:14:51;;;;;;;;;10.20;10.20;;;;;-0.71;80.99;101121.44;5120577;28;8804;-60
2023/01/29 06:17:19;;;;;;;;;12.60;11.80;;;;;-0.70;81.09;101120.56;5120393;28;9565;-60
2023/01/29 06:19:47;;;;;;;;;18.00;15.00;;;;;-0.71;81.25;101111.84;5120068;28;9558;-60
2023/01/29 06:22:14;;;;;;;;;23.20;21.40;;;;;-0.72;81.45;101127.53;5119977;27;8855;-60
2023/01/29 06:24:42;;;;;;;;;12.80;12.20;;;;;-0.73;80.85;101133.66;5140710;27;9483;-61
2023/01/29 06:27:10;;;;;;;;;16.00;16.00;;;;;-0.73;81.00;101133.66;5140525;27;8810;-60
2023/01/29 06:29:38;;;;;;;;;8.20;8.20;;;;;-0.74;81.29;101138.03;5121380;27;8905;-60
2023/01/29 06:32:05;;;;;;;;;2.00;0.60;;;;;-0.73;80.88;101134.53;5120019;28;8828;-60
2023/01/29 06:34:33;;;;;;;;;24.40;19.20;;;;;-0.70;81.71;101131.00;5119562;28;8884;-60
2023/01/29 06:37:03;;;;;;;;;12.60;12.00;;;;;-0.69;81.45;101133.59;5119552;28;8812;-58
2023/01/29 06:39:30;;;;;;;;;16.20;15.40;;;;;-0.64;81.41;101138.75;5119589;28;8839;-58
2023/01/29 06:41:58;;;;;;;;;10.40;9.40;;;;;-0.62;81.09;101135.22;5119427;28;8828;-58
2023/01/29 06:44:26;;;;;;;;;17.20;16.00;;;;;-0.60;81.17;101122.13;5119211;28;8827;-60
2023/01/29 06:46:54;;;;;;;;;12.80;9.20;;;;;-0.63;81.17;101124.81;5119533;28;8880;-60
2023/01/29 06:49:22;;;;;;;;;15.00;13.80;;;;;-0.66;81.61;101132.69;5119331;28;8832;-60
2023/01/29 06:51:49;;;;;;;;;13.80;13.80;;;;;-0.66;81.47;101140.53;5119197;28;8855;-61
2023/01/29 06:54:17;;;;;;;;;13.20;12.40;;;;;-0.65;81.49;101137.00;5136884;27;8865;-61
2023/01/29 06:56:45;;;;;;;;;6.80;4.20;;;;;-0.63;81.62;101145.72;5139484;27;8826;-60
2023/01/29 06:59:13;;;;;;;;;13.80;12.80;;;;;-0.62;82.00;101150.06;5124985;27;9489;-60
2023/01/29 07:01:42;;;;;;;;;15.00;13.00;;;;;-0.59;81.63;101143.03;5119155;28;8924;-60
2023/01/29 07:04:10;;;;;;;;;11.80;11.80;;;;;-0.55;81.78;101141.25;5118770;28;9504;-61
2023/01/29 07:06:38;;;;;;;;;11.40;9.40;;;;;-0.52;81.11;101156.88;5119256;28;8827;-60
2023/01/29 07:09:06;;;;;;;;;20.40;19.20;;;;;-0.48;81.14;101161.19;5118413;28;8824;-61
2023/01/29 07:11:34;;;;;;;;;13.20;12.80;;;;;-0.46;81.07;101148.94;5119403;28;9543;-60
2023/01/29 07:14:01;;;;;;;;;9.80;9.00;;;;;-0.43;81.50;101148.88;5118858;28;8840;-59
2023/01/29 07:16:29;;;;;;;;;21.60;18.80;;;;;-0.42;81.53;101146.25;5119054;28;8815;-60
2023/01/29 07:18:57;;;;;;;;;12.40;10.40;;;;;-0.39;81.26;101143.56;5118937;28;8820;-60
2023/01/29 07:21:25;;;;;;;;;17.20;15.40;;;;;-0.35;80.99;101136.53;5118415;28;8847;-61
2023/01/29 07:23:52;;;;;;;;;22.00;18.40;;;;;-0.34;81.15;101135.63;5132603;27;8826;-60
2023/01/29 07:26:20;;;;;;;;;23.80;22.00;;;;;-0.33;80.93;101129.53;5139003;27;8829;-60
2023/01/29 07:28:48;;;;;;;;;12.40;11.60;;;;;-0.32;81.12;101139.13;5127753;27;8819;-60
2023/01/29 07:31:16;;;;;;;;;22.80;21.40;;;;;-0.29;81.07;101133.81;5117501;28;8808;-58
2023/01/29 07:33:44;;;;;;;;;10.80;9.00;;;;;-0.26;81.77;101125.91;5117381;28;8907;-58
2023/01/29 07:36:11;;;;;;;;;10.40;9.80;;;;;-0.23;80.99;101115.41;5117741;28;8836;-59
2023/01/29 07:38:39;;;;;;;;;6.00;4.40;;;;;-0.22;80.70;101124.97;5117839;28;8934;-61
2023/01/29 07:41:07;;;;;;;;;3.20;3.00;;;;;-0.20;80.79;101125.81;5117911;28;8846;-61
2023/01/29 07:43:35;;;;;;;;;16.80;14.20;;;;;-0.17;81.17;101123.16;5117973;28;8843;-61
2023/01/29 07:46:03;;;;;;;;;16.00;15.00;;;;;-0.17;81.28;101118.75;5118197;28;8834;-60
2023/01/29 07:48:31;;;;;;;;;12.80;10.20;;;;;-0.15;80.96;101124.88;5117326;28;8839;-58
2023/01/29 07:50:59;;;;;;;;;14.00;11.80;;;;;-0.13;81.06;101122.19;5117112;28;8862;-61
2023/01/29 07:53:26;;;;;;;;;12.20;12.00;;;;;-0.10;80.80;101123.00;5127296;27;8817;-60
2023/01/29 07:55:54;;;;;;;;;9.80;6.40;;;;;-0.08;80.89;101129.94;5138150;27;8829;-60
2023/01/29 07:58:22;;;;;;;;;1.00;1.00;;;;;-0.06;81.14;101124.69;5131314;27;9699;-60
2023/01/29 08:00:49;;;;;;;;;21.60;18.60;;;;;-0.02;80.95;101121.09;5116777;28;8843;-61
2023/01/29 08:03:18;;;;;;;;;16.20;15.80;;;;;0.00;80.64;101117.56;5117297;28;8933;-60
2023/01/29 08:05:46;;;;;;;;;15.80;15.40;;;;;0.03;80.82;101114.88;5117670;28;8835;-60
2023/01/29 08:08:14;;;;;;;;;12.40;12.00;;;;;0.05;80.38;101104.41;5117652;28;8823;-60
2023/01/29 08:10:42;;;;;;;;;18.60;17.20;;;;;0.06;80.71;101107.00;5117417;28;8879;-60
2023/01/29 08:13:09;;;;;;;;;21.20;17.40;;;;;0.09;80.30;101109.56;5117318;28;8815;-60
2023/01/29 08:15:37;;;;;;;;;19.80;16.00;;;;;0.11;80.99;101102.56;5116021;28;8832;-60
2023/01/29 08:18:05;;;;;;;;;24.00;20.60;;;;;0.15;80.51;101101.59;5117082;28;8828;-60
2023/01/29 08:20:33;;;;;;;;;16.40;14.40;;;;;0.16;80.54;101092.00;5116714;28;8958;-61
2023/01/29 08:23:01;;;;;;;;;12.80;12.20;;;;;0.19;80.59;101089.31;5123620;27;9487;-61
2023/01/29 08:25:29;;;;;;;;;14.60;14.00;;;;;0.20;80.32;101075.31;5137500;27;8836;-58
2023/01/29 08:27:57;;;;;;;;;14.60;13.00;;;;;0.21;80.35;101077.91;5129725;27;8789;-58
2023/01/29 08:30:25;;;;;;;;;11.20;9.60;;;;;0.24;80.66;101083.06;5117145;28;8816;-58
2023/01/29 08:32:53;;;;;;;;;10.80;9.40;;;;;0.25;80.79;101083.94;5117697;28;8844;-60
2023/01/29 08:35:21;;;;;;;;;9.60;9.00;;;;;0.28;80.64;101095.22;5116799;28;8850;-61
2023/01/29 08:37:49;;;;;;;;;9.40;6.80;;;;;0.30;80.07;101103.91;5116650;28;8905;-61
2023/01/29 08:40:16;;;;;;;;;12.60;12.60;;;;;0.34;80.65;101102.09;5115796;28;8834;-59
2023/01/29 08:42:45;;;;;;;;;16.40;14.60;;;;;0.39;80.58;101102.88;5115681;28;8804;-61
2023/01/29 08:45:13;;;;;;;;;12.40;12.00;;;;;0.41;80.59;101101.97;5116769;28;8823;-60
2023/01/29 08:47:41;;;;;;;;;17.20;15.40;;;;;0.44;80.62;101096.63;5116124;28;8811;-60
2023/01/29 08:50:08;;;;;;;;;13.80;12.80;;;;;0.48;80.07;101087.81;5115911;28;8862;-58
2023/01/29 08:52:36;;;;;;;;;4.00;3.00;;;;;0.50;80.57;101077.31;5119454;27;8855;-60
2023/01/29 08:55:04;;;;;;;;;13.80;12.80;;;;;0.52;80.69;101062.41;5127287;27;8832;-60
2023/01/29 08:57:32;;;;;;;;;11.20;11.20;;;;;0.50;79.85;101038.88;5116026;28;8884;-58
2023/01/29 09:00:00;;;;;;;;;12.40;11.20;;;;;0.51;80.33;101051.09;5115815;28;8828;-60
2023/01/29 09:02:28;;;;;;;;;5.20;3.80;;;;;0.50;80.34;101054.59;5115420;28;8840;-60
2023/01/29 09:04:56;;;;;;;;;9.00;9.00;;;;;0.53;80.43;101064.16;5115529;28;8816;-60
2023/01/29 09:07:23;;;;;;;;;17.80;17.00;;;;;0.55;79.96;101065.81;5116305;28;9621;-60
2023/01/29 09:09:52;;;;;;;;;13.00;12.80;;;;;0.61;79.95;101063.09;5115823;28;9500;-61
2023/01/29 09:12:20;;;;;;;;;20.80;17.60;;;;;0.69;80.56;101050.69;5115768;28;8812;-60
2023/01/29 09:14:48;;;;;;;;;18.20;15.60;;;;;0.74;79.70;101046.22;5115596;28;8796;-61
2023/01/29 09:17:15;;;;;;;;;19.80;15.60;;;;;0.82;80.19;101043.41;5116467;28;8850;-59
2023/01/29 09:19:43;;;;;;;;;17.20;17.00;;;;;0.88;80.07;101044.13;5116584;28;8870;-58
2023/01/29 09:22:11;;;;;;;;;12.80;11.20;;;;;0.93;79.69;101042.25;5116162;28;8834;-59
2023/01/29 09:24:39;;;;;;;;;10.40;9.60;;;;;0.96;80.02;101036.97;5114815;28;8878;-58
2023/01/29 09:27:08;;;;;;;;;14.00;14.00;;;;;0.99;79.79;101034.25;5114199;28;8918;-58
2023/01/29 09:29:36;;;;;;;;;13.00;12.60;;;;;1.00;79.54;101035.97;5114495;28;8941;-57
2023/01/29 09:32:04;;;;;;;;;15.00;11.00;;;;;1.06;79.80;101033.22;5114553;28;8836;-58
2023/01/29 09:34:33;;;;;;;;;14.00;13.60;;;;;1.13;79.49;101026.94;5115738;28;9482;-58
2023/01/29 09:37:01;;;;;;;;;10.20;8.60;;;;;1.21;79.59;101038.09;5115639;28;8840;-59
2023/01/29 09:39:29;;;;;;;;;18.40;16.80;;;;;1.33;78.67;101037.81;5115805;28;8983;-59
2023/01/29 09:41:57;;;;;;;;;16.00;15.00;;;;;1.43;79.06;101027.91;5115994;28;9656;-60
2023/01/29 09:44:25;;;;;;;;;6.60;6.40;;;;;1.49;78.52;101031.25;5115262;28;8924;-60
2023/01/29 09:46:53;;;;;;;;;7.80;7.40;;;;;1.58;79.03;101019.66;5115449;28;8846;-59
2023/01/29 09:49:21;;;;;;;;;8.20;7.40;;;;;1.66;78.49;101021.19;5115316;28;8902;-60
2023/01/29 09:51:49;;;;;;;;;16.80;15.40;;;;;1.70;78.11;101024.59;5115528;28;8863;-60
2023/01/29 09:54:17;;;;;;;;;21.00;17.60;;;;;1.74;78.52;101021.84;5132996;27;8806;-60
2023/01/29 09:56:45;;;;;;;;;9.00;7.80;;;;;1.76;78.25;101009.53;5118719;28;8808;-60
2023/01/29 09:59:13;;;;;;;;;15.80;13.40;;;;;1.77;77.81;101007.78;5115919;28;8824;-59
2023/01/29 10:01:41;;;;;;;;;11.80;11.20;;;;;1.73;78.56;101012.25;5114343;28;8961;-58
2023/01/29 10:04:09;;;;;;;;;14.00;9.80;;;;;1.69;78.49;101017.63;5114940;28;8843;-60
2023/01/29 10:06:37;;;;;;;;;22.80;17.60;;;;;1.67;78.54;101015.03;5114939;28;8796;-60
2023/01/29 10:09:05;;;;;;;;;15.40;14.20;;;;;1.63;78.39;101016.03;5115663;28;8824;-60
2023/01/29 10:11:32;;;;;;;;;23.20;17.80;;;;;1.61;78.30;101012.56;5115538;28;8855;-59
2023/01/29 10:14:01;;;;;;;;;12.20;12.00;;;;;1.65;78.35;101014.22;5115529;28;8946;-61
2023/01/29 10:16:29;;;;;;;;;16.40;15.20;;;;;1.68;78.52;101021.16;5115047;28;8897;-59
2023/01/29 10:18:57;;;;;;;;;15.20;14.80;;;;;1.69;78.47;101022.88;5115856;28;8823;-61
2023/01/29 10:21:25;;;;;;;;;3.00;2.20;;;;;1.71;78.70;101018.44;5115340;28;9533;-59
2023/01/29 10:23:53;;;;;;;;;15.00;14.60;;;;;1.74;78.21;101021.84;5129268;27;8822;-60
2023/01/29 10:26:21;;;;;;;;;16.00;14.40;;;;;1.76;78.51;101011.31;5135718;27;8861;-59
2023/01/29 10:28:49;;;;;;;;;11.20;9.80;;;;;1.79;78.73;101012.09;5135629;27;8865;-60
2023/01/29 10:31:17;;;;;;;;;16.40;15.20;;;;;1.81;78.37;101012.91;5135235;27;8902;-59
2023/01/29 10:33:45;;;;;;;;;6.80;6.00;;;;;1.82;77.66;101019.03;5134881;27;8841;-57
2023/01/29 10:36:28;;;;;;;;;12.00;9.00;;;;;1.82;77.82;101017.25;5134643;27;8841;-60
2023/01/29 10:38:56;;;;;;;;;15.40;14.20;;;;;1.83;77.74;101018.13;5137182;27;8826;-60
2023/01/29 10:41:24;;;;;;;;;22.40;19.00;;;;;1.86;78.23;101013.66;5139754;27;9487;-62
2023/01/29 10:43:52;;;;;;;;;19.20;15.80;;;;;1.85;77.85;101006.69;5139223;27;8837;-58
2023/01/29 10:46:20;;;;;;;;;19.60;17.80;;;;;1.88;77.49;100993.44;5119997;27;8940;-61
2023/01/29 10:48:48;;;;;;;;;20.20;16.80;;;;;1.91;77.90;100976.75;5118231;28;8847;-60
2023/01/29 10:51:16;;;;;;;;;23.00;21.20;;;;;1.91;77.46;100977.59;5118012;28;8848;-61
2023/01/29 10:53:44;;;;;;;;;30.20;28.40;;;;;1.90;77.42;100959.28;5131004;27;8814;-60
2023/01/29 10:56:12;;;;;;;;;17.60;17.20;;;;;1.85;77.67;100961.16;5138288;27;8829;-60
2023/01/29 10:58:49;;;;;;;;;15.80;15.20;;;;;1.83;77.52;100963.81;5137670;27;8856;-60
2023/01/29 11:01:17;;;;;;;;;18.20;15.40;;;;;1.85;77.09;100948.03;5136930;27;9538;-60
2023/01/29 11:03:46;;;;;;;;;34.20;30.80;;;;;1.94;76.75;100953.91;5137566;27;8864;-60
2023/01/29 11:06:13;;;;;;;;;20.60;18.20;;;;;2.02;76.67;100957.16;5137432;27;8860;-61
2023/01/29 11:08:42;;;;;;;;;22.40;21.00;;;;;2.06;76.55;100950.91;5137948;27;8845;-61
2023/01/29 11:11:10;;;;;;;;;17.80;15.20;;;;;2.06;76.70;100955.31;5138460;27;8888;-59
2023/01/29 11:13:38;;;;;;;;;25.60;18.60;;;;;2.07;76.63;100952.66;5138572;27;8849;-60
2023/01/29 11:16:06;;;;;;;;;20.40;20.40;;;;;2.10;76.68;100949.03;5122006;27;8816;-60
2023/01/29 11:18:34;;;;;;;;;16.80;15.40;;;;;2.14;76.38;100954.16;5118019;28;8831;-57
2023/01/29 11:21:02;;;;;;;;;13.80;12.00;;;;;2.21;76.08;100958.31;5117790;28;8896;-60
2023/01/29 11:23:30;;;;;;;;;15.00;13.40;;;;;2.30;75.91;100959.84;5127810;27;8964;-60
2023/01/29 11:25:58;;;;;;;;;20.60;18.40;;;;;2.37;76.10;100962.25;5137692;27;8897;-59
2023/01/29 11:28:26;;;;;;;;;19.20;18.40;;;;;2.41;76.25;100952.50;5137710;27;8897;-58
2023/01/29 11:30:54;;;;;;;;;27.40;25.60;;;;;2.37;75.61;100946.47;5137436;27;8838;-59
2023/01/29 11:33:22;;;;;;;;;14.80;14.80;;;;;2.27;76.82;100950.28;5137551;27;8813;-59
2023/01/29 11:35:51;;;;;;;;;9.80;7.40;;;;;2.19;76.18;100941.75;5137675;27;8837;-60
2023/01/29 11:38:19;;;;;;;;;21.40;18.60;;;;;2.14;75.91;100935.78;5137577;27;8931;-60
2023/01/29 11:40:48;;;;;;;;;26.40;23.60;;;;;2.10;76.67;100934.16;5138395;27;8826;-60
2023/01/29 11:43:15;;;;;;;;;22.00;20.60;;;;;2.09;76.74;100919.31;5137850;27;8845;-59
2023/01/29 11:45:44;;;;;;;;;22.60;19.00;;;;;2.11;76.13;100920.13;5124373;27;8828;-62
2023/01/29 11:48:11;;;;;;;;;9.60;7.40;;;;;2.11;76.08;100906.16;5117275;28;8835;-61
2023/01/29 11:50:39;;;;;;;;;22.40;19.80;;;;;2.13;76.44;100899.06;5117520;28;8936;-60
2023/01/29 11:53:07;;;;;;;;;21.00;19.00;;;;;2.14;76.60;100896.38;5123895;27;8948;-61
2023/01/29 11:55:35;;;;;;;;;14.40;9.60;;;;;2.13;75.80;100899.06;5137216;27;8956;-59
2023/01/29 11:58:16;;;;;;;;;22.00;21.20;;;;;2.10;75.71;100897.38;5137471;27;8856;-60